Time;durP1;ratioP1;P1;durP2;ratioP2;P2;SDS_P1;SDS_P2;PMS_P1;PMS_P2;Temp;Humidity;BMP_temperature;BMP_pressure;BME280_temperature;BME280_humidity;BME280_pressure;Samples;Min_cycle;Max_cycle;Signal;HPM_P1;HPM_P2
2021/04/20 00:01:56;;;;;;;7.25;3.90;;;8.00;43.60;;;;;;5062108;28;20027;-88
2021/04/20 00:04:22;;;;;;;7.72;4.38;;;7.90;43.60;;;;;;5078186;28;20025;-87
2021/04/20 00:06:48;;;;;;;5.70;4.20;;;7.90;44.10;;;;;;5078361;28;20028;-89
2021/04/20 00:09:14;;;;;;;7.30;4.20;;;7.80;44.20;;;;;;5058470;28;20032;-89
2021/04/20 00:11:40;;;;;;;8.70;4.78;;;7.80;44.40;;;;;;5089815;28;20043;-86
2021/04/20 00:14:12;;;;;;;6.53;4.63;;;7.80;44.60;;;;;;5083589;28;20016;-89
2021/04/20 00:16:39;;;;;;;9.40;4.85;;;7.70;44.90;;;;;;5080149;28;20020;-88
2021/04/20 00:19:11;;;;;;;7.70;4.20;;;7.60;45.40;;;;;;5062169;28;20428;-90
2021/04/20 00:21:37;;;;;;;9.50;4.55;;;7.60;45.90;;;;;;5079649;28;20027;-91
2021/04/20 00:24:04;;;;;;;10.15;5.32;;;7.60;46.00;;;;;;5079154;28;20031;-91
2021/04/20 00:26:30;;;;;;;5.50;4.45;;;7.60;46.30;;;;;;5078557;28;20393;-90
2021/04/20 00:28:56;;;;;;;7.72;4.72;;;7.60;46.50;;;;;;5073830;28;20497;-90
2021/04/20 00:31:24;;;;;;;8.73;4.82;;;7.50;46.90;;;;;;5079479;28;20024;-90
2021/04/20 00:33:57;;;;;;;7.53;3.75;;;7.50;47.50;;;;;;5078280;28;20020;-88
2021/04/20 00:36:23;;;;;;;12.18;5.18;;;7.40;47.70;;;;;;5068840;28;20441;-90
2021/04/20 00:38:49;;;;;;;11.05;4.55;;;7.40;48.20;;;;;;5082156;28;20066;-90
2021/04/20 00:41:20;;;;;;;5.93;3.75;;;7.40;48.00;;;;;;5065862;28;20020;-89
2021/04/20 00:43:58;;;;;;;8.93;4.47;;;7.30;47.80;;;;;;5085251;28;20107;-92
2021/04/20 00:46:24;;;;;;;6.40;4.32;;;7.20;47.60;;;;;;5066460;28;20035;-91
2021/04/20 00:48:51;;;;;;;5.43;4.70;;;7.20;47.40;;;;;;5089728;28;20017;-90
2021/04/20 00:51:26;;;;;;;9.90;5.07;;;7.20;47.40;;;;;;5087794;28;20099;-90
2021/04/20 00:53:55;;;;;;;7.75;4.47;;;7.20;47.50;;;;;;5077525;28;20040;-90
2021/04/20 00:56:21;;;;;;;6.55;3.58;;;7.20;47.30;;;;;;5094836;28;20047;-88
2021/04/20 00:58:47;;;;;;;8.27;5.35;;;7.30;46.50;;;;;;5090063;28;20036;-90
2021/04/20 01:01:13;;;;;;;9.07;5.13;;;7.30;46.30;;;;;;5058762;28;20023;-89
2021/04/20 01:03:39;;;;;;;10.10;4.60;;;7.30;46.20;;;;;;5077816;28;20030;-90
2021/04/20 01:06:05;;;;;;;11.38;3.95;;;7.30;46.10;;;;;;5082417;28;20080;-92
2021/04/20 01:08:52;;;;;;;7.28;4.75;;;7.30;45.80;;;;;;5066886;28;20031;-91
2021/04/20 01:11:22;;;;;;;7.38;3.70;;;7.30;45.50;;;;;;5070376;28;20021;-93
2021/04/20 01:13:51;;;;;;;8.50;4.70;;;7.20;45.20;;;;;;5082165;28;20092;-91
2021/04/20 01:16:21;;;;;;;7.93;3.95;;;7.30;45.40;;;;;;5092895;28;20020;-88
2021/04/20 01:18:47;;;;;;;9.10;4.07;;;7.30;44.80;;;;;;5079548;28;20056;-89
2021/04/20 01:21:14;;;;;;;5.25;4.00;;;7.30;44.60;;;;;;5105600;28;20058;-89
2021/04/20 01:24:06;;;;;;;7.95;4.85;;;7.20;44.20;;;;;;5081400;28;20028;-89
2021/04/20 01:26:35;;;;;;;8.48;3.63;;;7.20;44.30;;;;;;5091110;28;20050;-90
2021/04/20 01:29:03;;;;;;;7.18;3.70;;;7.20;44.30;;;;;;5102038;28;20036;-90
2021/04/20 01:31:32;;;;;;;9.75;3.75;;;7.10;44.20;;;;;;5104768;28;20031;-89
2021/04/20 01:33:59;;;;;;;6.43;3.70;;;7.10;44.00;;;;;;5071581;28;20120;-88
2021/04/20 01:36:37;;;;;;;7.45;4.10;;;7.10;43.90;;;;;;5071668;28;20481;-89
2021/04/20 01:39:05;;;;;;;6.22;3.60;;;7.20;43.40;;;;;;5104462;28;20050;-90
2021/04/20 01:41:34;;;;;;;9.88;3.97;;;7.10;43.40;;;;;;5086562;28;20047;-89
2021/04/20 01:44:00;;;;;;;9.95;4.38;;;7.10;43.40;;;;;;5096194;28;20039;-91
2021/04/20 01:46:26;;;;;;;10.88;3.92;;;7.10;43.20;;;;;;5105526;28;20020;-89
2021/04/20 01:48:53;;;;;;;4.47;3.90;;;7.20;43.00;;;;;;5104608;28;20020;-89
2021/04/20 01:51:20;;;;;;;6.18;4.07;;;7.20;42.40;;;;;;5106544;28;20389;-92
2021/04/20 01:53:48;;;;;;;8.55;4.13;;;7.30;41.90;;;;;;5104419;28;20023;-90
2021/04/20 01:56:14;;;;;;;5.47;3.45;;;7.20;41.80;;;;;;5104429;28;20439;-89
2021/04/20 01:58:41;;;;;;;9.15;4.45;;;7.10;41.70;;;;;;5091336;28;20382;-89
2021/04/20 02:01:11;;;;;;;5.93;3.88;;;7.20;41.70;;;;;;5107183;28;20016;-89
2021/04/20 02:03:38;;;;;;;7.30;3.90;;;7.10;41.30;;;;;;5103797;28;20020;-90
2021/04/20 02:06:06;;;;;;;8.63;3.80;;;7.00;41.40;;;;;;5104859;28;20020;-89
2021/04/20 02:08:32;;;;;;;6.20;3.75;;;7.00;41.10;;;;;;5100122;28;20268;-88
2021/04/20 02:11:02;;;;;;;5.47;3.88;;;7.00;41.10;;;;;;5095747;28;20027;-90
2021/04/20 02:13:28;;;;;;;6.22;3.55;;;7.00;41.20;;;;;;5111981;28;20043;-88
2021/04/20 02:15:54;;;;;;;7.78;4.57;;;7.00;41.30;;;;;;5090566;28;20059;-89
2021/04/20 02:18:23;;;;;;;7.00;3.50;;;7.00;41.20;;;;;;5091863;28;20052;-90
2021/04/20 02:20:50;;;;;;;7.50;4.00;;;7.00;40.70;;;;;;5110514;28;20047;-89
2021/04/20 02:23:17;;;;;;;5.95;3.88;;;6.90;40.80;;;;;;5105655;28;20020;-89
2021/04/20 02:25:46;;;;;;;8.43;4.05;;;6.80;40.90;;;;;;5103877;28;20013;-89
2021/04/20 02:28:12;;;;;;;7.53;4.18;;;6.90;41.20;;;;;;5105560;28;20028;-90
2021/04/20 02:30:38;;;;;;;5.10;3.08;;;6.90;41.20;;;;;;5105399;28;20489;-89
2021/04/20 02:33:04;;;;;;;7.22;3.72;;;6.90;41.10;;;;;;5102579;28;20030;-88
2021/04/20 02:35:31;;;;;;;9.02;3.67;;;6.90;41.20;;;;;;5115146;28;20032;-88
2021/04/20 02:37:58;;;;;;;8.40;4.35;;;6.90;41.30;;;;;;5108367;28;20064;-90
2021/04/20 02:40:26;;;;;;;8.55;4.63;;;6.80;40.70;;;;;;5101331;28;20071;-91
2021/04/20 02:42:53;;;;;;;5.90;4.00;;;6.80;40.80;;;;;;5096985;28;20020;-90
2021/04/20 02:45:24;;;;;;;9.45;4.40;;;6.80;40.90;;;;;;5098901;28;20032;-88
2021/04/20 02:47:51;;;;;;;4.32;2.92;;;6.80;41.00;;;;;;5109906;28;20016;-89
2021/04/20 02:50:25;;;;;;;6.75;4.25;;;6.80;40.90;;;;;;5097275;28;20036;-89
2021/04/20 02:52:52;;;;;;;5.88;4.18;;;6.80;40.70;;;;;;5085334;28;20432;-89
2021/04/20 02:55:19;;;;;;;12.30;4.55;;;6.80;40.90;;;;;;5100899;28;20020;-89
2021/04/20 02:57:48;;;;;;;10.30;4.20;;;6.70;41.00;;;;;;5098975;28;20097;-89
2021/04/20 03:00:17;;;;;;;9.77;4.28;;;6.80;41.20;;;;;;5100975;28;20358;-89
2021/04/20 03:02:45;;;;;;;5.95;3.65;;;6.90;41.20;;;;;;5097435;28;20102;-88
2021/04/20 03:05:16;;;;;;;6.93;4.63;;;6.90;41.10;;;;;;5090661;28;20550;-86
2021/04/20 03:07:46;;;;;;;14.35;5.88;;;6.90;40.70;;;;;;5116338;28;20031;-86
2021/04/20 03:10:15;;;;;;;17.75;5.50;;;6.80;41.60;;;;;;5085780;28;20043;-90
2021/04/20 03:12:41;;;;;;;11.45;4.30;;;6.90;41.50;;;;;;5098495;28;20016;-88
2021/04/20 03:15:11;;;;;;;9.40;5.50;;;6.90;41.30;;;;;;5082253;28;20027;-88
2021/04/20 03:17:43;;;;;;;12.00;4.20;;;6.90;41.00;;;;;;5110546;28;20038;-88
2021/04/20 03:20:11;;;;;;;6.93;4.20;;;6.80;41.00;;;;;;5115461;28;20043;-87
2021/04/20 03:22:38;;;;;;;;;;;6.70;41.00;;;;;;5094798;28;20016;-88
2021/04/20 03:25:14;;;;;;;9.30;3.63;;;6.50;41.20;;;;;;5099874;28;19904;-89
2021/04/20 03:27:45;;;;;;;7.85;4.43;;;6.40;41.70;;;;;;5099092;28;20000;-89
2021/04/20 03:30:13;;;;;;;7.47;3.33;;;6.20;42.00;;;;;;5098329;28;20030;-87
2021/04/20 03:32:44;;;;;;;11.23;4.18;;;6.20;42.30;;;;;;5085253;28;20469;-89
2021/04/20 03:35:51;;;;;;;6.82;4.25;;;6.10;42.40;;;;;;5098967;28;20024;-89
2021/04/20 03:38:38;;;;;;;5.50;3.28;;;6.10;42.50;;;;;;5087395;28;20464;-89
2021/04/20 03:41:13;;;;;;;10.20;4.40;;;6.10;42.50;;;;;;5096562;28;20029;-88
2021/04/20 03:43:42;;;;;;;5.30;3.42;;;6.10;42.60;;;;;;5079997;28;20031;-89
2021/04/20 03:46:18;;;;;;;8.00;3.65;;;6.10;42.50;;;;;;5104838;28;20110;-89
2021/04/20 03:48:49;;;;;;;8.90;4.13;;;6.10;42.40;;;;;;5104609;28;20021;-90
2021/04/20 03:51:18;;;;;;;7.00;4.07;;;6.00;42.50;;;;;;5102976;28;20427;-89
2021/04/20 03:53:48;;;;;;;12.43;4.72;;;6.10;43.00;;;;;;5102308;28;20026;-88
2021/04/20 03:56:15;;;;;;;7.85;4.78;;;6.30;42.70;;;;;;5100985;28;20038;-91
2021/04/20 03:58:43;;;;;;;10.70;5.43;;;6.30;43.00;;;;;;5075855;28;20032;-91
2021/04/20 04:01:14;;;;;;;7.55;4.75;;;6.40;42.60;;;;;;5089804;28;20049;-89
2021/04/20 04:03:40;;;;;;;10.63;3.40;;;6.50;42.30;;;;;;5103999;28;20027;-87
2021/04/20 04:06:07;;;;;;;7.33;3.77;;;6.60;41.80;;;;;;5081982;28;20385;-87
2021/04/20 04:08:39;;;;;;;15.32;8.18;;;6.60;41.50;;;;;;5082469;28;20042;-87
2021/04/20 04:11:06;;;;;;;11.13;6.35;;;6.50;42.50;;;;;;5100858;28;20023;-87
2021/04/20 04:13:33;;;;;;;12.32;4.43;;;6.50;42.40;;;;;;5087091;28;20052;-88
2021/04/20 04:16:01;;;;;;;11.10;4.05;;;6.60;42.40;;;;;;5105731;28;20040;-88
2021/04/20 04:18:29;;;;;;;11.45;4.25;;;6.80;42.10;;;;;;5108067;28;20052;-89
2021/04/20 04:20:59;;;;;;;13.02;4.47;;;7.00;41.90;;;;;;5108777;28;20095;-90
2021/04/20 04:23:30;;;;;;;13.43;5.43;;;7.20;41.60;;;;;;5105669;28;20024;-89
2021/04/20 04:26:00;;;;;;;11.32;4.88;;;7.30;41.30;;;;;;5075362;28;20351;-88
2021/04/20 04:28:29;;;;;;;9.02;4.20;;;7.40;41.00;;;;;;5104873;28;20065;-92
2021/04/20 04:30:57;;;;;;;7.13;3.90;;;7.40;40.90;;;;;;5104578;28;20012;-88
2021/04/20 04:33:25;;;;;;;8.23;3.88;;;7.40;40.50;;;;;;5090072;28;20020;-89
2021/04/20 04:35:52;;;;;;;10.45;4.15;;;7.30;40.50;;;;;;5101952;28;20023;-89
2021/04/20 04:38:19;;;;;;;12.95;5.47;;;7.20;40.60;;;;;;5063279;28;20506;-87
2021/04/20 04:40:46;;;;;;;9.15;3.40;;;7.20;41.10;;;;;;5095946;28;20027;-88
2021/04/20 04:43:12;;;;;;;12.35;4.38;;;7.30;41.10;;;;;;5072965;28;20032;-88
2021/04/20 04:45:39;;;;;;;11.15;5.13;;;7.30;40.90;;;;;;5101640;28;20107;-91
2021/04/20 04:48:14;;;;;;;6.50;4.20;;;7.40;41.10;;;;;;5083658;28;20031;-91
2021/04/20 04:50:41;;;;;;;16.17;4.93;;;7.40;40.70;;;;;;5104672;28;20044;-89
2021/04/20 04:53:15;;;;;;;12.32;4.20;;;7.50;40.80;;;;;;5087932;28;20028;-90
2021/04/20 04:55:41;;;;;;;12.20;5.78;;;7.70;40.80;;;;;;5084062;28;20115;-89
2021/04/20 04:58:09;;;;;;;8.38;4.35;;;7.90;39.90;;;;;;5105275;28;20032;-87
2021/04/20 05:00:36;;;;;;;11.77;5.40;;;8.10;39.90;;;;;;5067237;28;20019;-88
2021/04/20 05:03:05;;;;;;;9.73;4.38;;;8.40;39.80;;;;;;5098979;28;20031;-90
2021/04/20 05:05:33;;;;;;;14.43;5.00;;;8.60;39.10;;;;;;5082614;28;20021;-90
2021/04/20 05:07:59;;;;;;;11.27;4.60;;;9.50;38.30;;;;;;5086787;28;20027;-89
2021/04/20 05:10:25;;;;;;;6.50;4.00;;;9.80;37.00;;;;;;5102099;28;20031;-90
2021/04/20 05:12:53;;;;;;;11.70;5.00;;;10.10;36.50;;;;;;5079612;28;20488;-87
2021/04/20 05:15:21;;;;;;;9.88;6.20;;;10.10;35.90;;;;;;5098305;28;20087;-87
2021/04/20 05:17:47;;;;;;;11.10;5.18;;;9.80;36.60;;;;;;5090074;28;20040;-86
2021/04/20 05:20:18;;;;;;;12.48;4.40;;;9.40;37.30;;;;;;5115215;28;20028;-90
2021/04/20 05:22:48;;;;;;;7.88;4.80;;;9.20;37.30;;;;;;5110918;28;20027;-88
2021/04/20 05:25:18;;;;;;;11.35;5.78;;;9.10;37.80;;;;;;5088919;28;20023;-90
2021/04/20 05:27:48;;;;;;;13.32;6.35;;;9.20;37.90;;;;;;5107935;28;20028;-89
2021/04/20 05:30:14;;;;;;;11.40;5.45;;;9.20;37.90;;;;;;5091912;28;20112;-88
2021/04/20 05:32:41;;;;;;;8.40;4.78;;;9.10;38.00;;;;;;5109040;28;20119;-89
2021/04/20 05:35:11;;;;;;;14.00;5.75;;;9.30;37.90;;;;;;5087296;28;20031;-90
2021/04/20 05:37:42;;;;;;;10.57;4.47;;;9.70;37.70;;;;;;5104453;28;20046;-92
2021/04/20 05:40:21;;;;;;;11.25;4.88;;;10.30;37.10;;;;;;5105596;28;20031;-90
2021/04/20 05:42:48;;;;;;;13.68;4.90;;;10.80;35.90;;;;;;5108370;28;20023;-90
2021/04/20 05:45:15;;;;;;;16.77;6.72;;;11.00;35.70;;;;;;5086588;28;20092;-90
2021/04/20 05:47:49;;;;;;;6.25;3.38;;;10.90;35.30;;;;;;5101287;28;20063;-92
2021/04/20 05:50:19;;;;;;;10.52;5.38;;;10.50;35.40;;;;;;5106204;28;20113;-90
2021/04/20 05:52:45;;;;;;;13.00;5.38;;;10.50;36.20;;;;;;5111404;28;20021;-91
2021/04/20 05:55:11;;;;;;;15.88;5.60;;;10.40;36.20;;;;;;5107905;28;20101;-92
2021/04/20 05:57:37;;;;;;;10.68;4.72;;;10.40;36.50;;;;;;5097536;28;20028;-92
2021/04/20 06:00:06;;;;;;;10.43;6.03;;;10.80;36.40;;;;;;5097871;28;20024;-89
2021/04/20 06:02:34;;;;;;;12.13;4.90;;;12.20;34.70;;;;;;5083114;28;20032;-91
2021/04/20 06:05:15;;;;;;;12.18;5.15;;;13.10;33.30;;;;;;5103671;28;20540;-90
2021/04/20 06:07:53;;;;;;;11.07;6.03;;;14.00;32.20;;;;;;5050340;28;20040;-90
2021/04/20 06:10:18;;;;;;;;;;;14.70;31.20;;;;;;5103740;28;20039;-90
2021/04/20 06:13:08;;;;;;;12.68;6.15;;;15.00;32.10;;;;;;5102005;28;19904;-91
2021/04/20 06:15:34;;;;;;;11.52;5.15;;;14.90;29.80;;;;;;5099976;28;20034;-90
2021/04/20 06:18:00;;;;;;;8.27;5.25;;;14.30;30.10;;;;;;5100223;28;20040;-89
2021/04/20 06:20:28;;;;;;;15.38;6.40;;;14.40;30.40;;;;;;5087380;28;20024;-89
2021/04/20 06:22:55;;;;;;;19.35;8.27;;;14.80;30.20;;;;;;5114921;28;20080;-90
2021/04/20 06:25:22;;;;;;;20.35;9.88;;;15.10;29.90;;;;;;5105220;28;20028;-91
2021/04/20 06:27:49;;;;;;;12.18;4.97;;;15.00;30.00;;;;;;5105923;28;20024;-88
2021/04/20 06:30:16;;;;;;;49.22;10.13;;;15.00;29.30;;;;;;5102855;28;20051;-89
2021/04/20 06:32:44;;;;;;;21.73;8.38;;;15.00;29.60;;;;;;5086053;28;20437;-91
2021/04/20 06:35:14;;;;;;;10.80;5.53;;;15.00;30.00;;;;;;5101381;28;20016;-86
2021/04/20 06:37:42;;;;;;;16.58;7.47;;;16.20;29.80;;;;;;5099532;28;20028;-84
2021/04/20 06:40:18;;;;;;;8.32;5.25;;;17.20;28.30;;;;;;5090696;28;20020;-87
2021/04/20 06:42:49;;;;;;;14.27;5.45;;;17.50;27.30;;;;;;5066701;28;20031;-84
2021/04/20 06:45:24;;;;;;;13.48;6.38;;;17.20;27.90;;;;;;5096950;28;20023;-87
2021/04/20 06:48:03;;;;;;;13.15;6.03;;;17.50;27.50;;;;;;5104327;28;20072;-92
2021/04/20 06:50:32;;;;;;;19.25;6.32;;;17.90;27.40;;;;;;5078709;28;20020;-92
2021/04/20 06:52:59;;;;;;;16.55;5.57;;;18.50;26.80;;;;;;5101350;28;20039;-91
2021/04/20 06:55:43;;;;;;;7.60;4.88;;;18.40;26.60;;;;;;5083183;28;20046;-91
2021/04/20 06:58:43;;;;;;;8.90;4.88;;;18.60;26.50;;;;;;5100426;28;20125;-92
2021/04/20 07:01:16;;;;;;;15.50;5.22;;;18.10;26.90;;;;;;5081853;28;20024;-89
2021/04/20 07:04:26;;;;;;;18.35;6.28;;;18.40;26.50;;;;;;5085771;28;20050;-90
2021/04/20 07:07:15;;;;;;;17.08;7.32;;;17.90;27.00;;;;;;5021029;28;20022;-91
2021/04/20 07:09:48;;;;;;;9.02;4.78;;;17.20;27.20;;;;;;5103451;28;20020;-92
2021/04/20 07:12:17;;;;;;;14.75;5.40;;;17.10;27.50;;;;;;5103274;28;20115;-92
2021/04/20 07:14:49;;;;;;;8.35;5.22;;;17.50;27.80;;;;;;5104600;28;20384;-93
2021/04/20 07:17:33;;;;;;;15.88;6.25;;;17.90;27.10;;;;;;5104921;28;20060;-92
2021/04/20 07:20:36;;;;;;;12.18;5.22;;;18.40;26.80;;;;;;5107866;28;20048;-91
2021/04/20 07:23:19;;;;;;;9.30;5.88;;;18.60;26.50;;;;;;5089216;28;20079;-92
2021/04/20 07:26:16;;;;;;;15.65;7.38;;;18.40;26.90;;;;;;5106370;28;20042;-91
2021/04/20 07:29:10;;;;;;;15.63;7.22;;;18.40;26.90;;;;;;5104524;28;20027;-90
2021/04/20 07:31:44;;;;;;;15.20;6.40;;;18.30;26.80;;;;;;5113981;28;20016;-87
2021/04/20 07:35:04;;;;;;;15.10;6.50;;;17.50;27.30;;;;;;5112122;28;20012;-91
2021/04/20 07:37:55;;;;;;;6.20;4.10;;;16.90;27.70;;;;;;4999219;28;20125;-90
2021/04/20 07:40:43;;;;;;;18.60;6.72;;;16.30;28.30;;;;;;5091503;28;20069;-91
2021/04/20 07:43:38;;;;;;;11.27;6.82;;;16.40;29.10;;;;;;5070728;28;20403;-90
2021/04/20 07:46:26;;;;;;;9.98;6.25;;;18.60;28.00;;;;;;5102491;28;20049;-92
2021/04/20 07:49:08;;;;;;;14.52;6.00;;;18.70;27.30;;;;;;5105220;28;20068;-90
2021/04/20 07:51:53;;;;;;;13.50;5.85;;;18.90;26.70;;;;;;5063586;28;20017;-93
2021/04/20 07:54:36;;;;;;;16.95;6.75;;;18.90;26.30;;;;;;5082265;28;20024;-91
2021/04/20 07:57:24;;;;;;;17.45;5.57;;;19.00;26.40;;;;;;5106216;28;20036;-91
2021/04/20 07:59:53;;;;;;;13.90;5.78;;;18.40;26.50;;;;;;5082439;28;20039;-89
2021/04/20 08:02:42;;;;;;;13.95;4.82;;;18.50;26.80;;;;;;5084224;28;20425;-89
2021/04/20 08:05:36;;;;;;;16.05;6.55;;;18.40;26.50;;;;;;5069905;28;20063;-90
2021/04/20 08:08:26;;;;;;;14.65;6.72;;;17.60;27.70;;;;;;5081285;28;20027;-91
2021/04/20 08:11:28;;;;;;;16.80;6.40;;;17.50;27.40;;;;;;5069118;28;20032;-92
2021/04/20 08:14:14;;;;;;;19.10;6.15;;;17.80;27.70;;;;;;5049356;28;20025;-92
2021/04/20 08:16:49;;;;;;;15.18;5.60;;;17.70;27.80;;;;;;5060416;28;20020;-90
2021/04/20 08:19:27;;;;;;;13.60;5.40;;;17.90;27.50;;;;;;5081410;28;20040;-91
2021/04/20 08:21:56;;;;;;;14.07;5.78;;;17.80;27.50;;;;;;5073091;28;20032;-90
2021/04/20 08:24:31;;;;;;;12.07;5.22;;;17.50;27.50;;;;;;5078386;28;20005;-92
2021/04/20 08:27:40;;;;;;;11.55;4.47;;;17.30;28.10;;;;;;5075439;28;20030;-90
2021/04/20 08:30:26;;;;;;;11.05;5.50;;;16.40;28.40;;;;;;5081894;28;20068;-92
2021/04/20 08:32:53;;;;;;;14.25;6.22;;;15.50;29.30;;;;;;5086194;28;20026;-91
2021/04/20 08:35:19;;;;;;;;;;;15.00;30.10;;;;;;5099242;28;20024;-91
2021/04/20 08:38:23;;;;;;;10.60;5.53;;;15.40;30.00;;;;;;5096590;28;19923;-90
2021/04/20 08:41:25;;;;;;;15.75;5.90;;;15.90;29.60;;;;;;5098654;28;20019;-92
2021/04/20 08:44:25;;;;;;;15.32;5.18;;;15.90;29.40;;;;;;5096231;28;20031;-92
2021/04/20 08:47:11;;;;;;;12.68;5.75;;;15.40;29.80;;;;;;5080156;28;20037;-91
2021/04/20 08:49:47;;;;;;;16.00;6.13;;;15.40;30.00;;;;;;5101478;28;20061;-91
2021/04/20 08:52:23;;;;;;;16.27;7.05;;;15.40;29.80;;;;;;5100469;28;20031;-90
2021/04/20 08:55:10;;;;;;;9.60;4.45;;;14.70;30.50;;;;;;5098842;28;20485;-91
2021/04/20 08:58:09;;;;;;;16.35;6.40;;;14.60;31.10;;;;;;5085673;28;20366;-93
2021/04/20 09:00:59;;;;;;;14.38;6.20;;;14.40;31.40;;;;;;5088232;28;20032;-90
2021/04/20 09:03:51;;;;;;;15.95;6.72;;;14.20;31.80;;;;;;5088148;28;20107;-92
2021/04/20 09:06:36;;;;;;;14.68;6.90;;;14.00;32.10;;;;;;5060612;28;20440;-91
2021/04/20 09:09:12;;;;;;;23.75;9.75;;;14.70;32.40;;;;;;5105884;28;20071;-90
2021/04/20 09:12:02;;;;;;;20.00;10.20;;;15.50;31.40;;;;;;5100950;28;20054;-92
2021/04/20 09:14:36;;;;;;;20.08;10.70;;;15.90;30.70;;;;;;5102059;28;20106;-91
2021/04/20 09:17:22;;;;;;;24.05;9.95;;;15.30;31.00;;;;;;5099849;28;20556;-90
2021/04/20 09:19:56;;;;;;;18.80;7.65;;;15.10;31.40;;;;;;5099553;28;20447;-92
2021/04/20 09:22:55;;;;;;;11.73;7.95;;;14.40;31.80;;;;;;5104761;28;20020;-92
2021/04/20 09:25:23;;;;;;;15.77;9.15;;;14.10;33.00;;;;;;5092735;28;20028;-91
2021/04/20 09:28:08;;;;;;;15.80;7.82;;;14.10;33.70;;;;;;5107925;28;20057;-92
2021/04/20 09:30:44;;;;;;;18.90;9.32;;;14.10;33.70;;;;;;5088044;28;20080;-91
2021/04/20 09:33:38;;;;;;;22.15;8.25;;;14.20;33.80;;;;;;5101798;28;20024;-92
2021/04/20 09:36:08;;;;;;;19.50;9.63;;;14.60;33.30;;;;;;5088927;28;20016;-91
2021/04/20 09:38:46;;;;;;;15.48;8.25;;;15.20;33.00;;;;;;5088985;28;20548;-93
2021/04/20 09:41:14;;;;;;;16.02;8.18;;;15.60;32.60;;;;;;5088522;28;20016;-90
2021/04/20 09:43:59;;;;;;;19.42;9.88;;;15.80;32.20;;;;;;5108665;28;20020;-91
2021/04/20 09:46:47;;;;;;;18.67;9.18;;;15.50;33.00;;;;;;5089902;28;20085;-91
2021/04/20 09:49:35;;;;;;;17.50;10.35;;;14.50;34.50;;;;;;5083779;28;20031;-93
2021/04/20 09:52:15;;;;;;;20.50;11.10;;;14.10;35.40;;;;;;5101549;28;20032;-91
2021/04/20 09:55:06;;;;;;;20.52;11.57;;;13.90;35.90;;;;;;5083712;28;20020;-90
2021/04/20 09:57:42;;;;;;;17.35;11.35;;;13.30;36.80;;;;;;5108959;28;20036;-92
2021/04/20 10:00:16;;;;;;;21.17;11.95;;;13.30;37.20;;;;;;5111794;28;20031;-90
2021/04/20 10:03:52;;;;;;;14.13;10.02;;;13.60;37.30;;;;;;5109024;28;20024;-90
2021/04/20 10:06:46;;;;;;;17.02;10.02;;;13.60;37.10;;;;;;5001231;28;20033;-89
2021/04/20 10:09:17;;;;;;;15.63;7.68;;;13.40;38.20;;;;;;5009385;28;20418;-90
2021/04/20 10:11:50;;;;;;;18.38;7.90;;;13.20;38.80;;;;;;5068790;28;20037;-90
2021/04/20 10:14:26;;;;;;;14.50;7.47;;;13.30;39.40;;;;;;5094385;28;20036;-90
2021/04/20 10:17:09;;;;;;;23.00;7.00;;;13.40;39.00;;;;;;5105050;28;20079;-88
2021/04/20 10:19:42;;;;;;;14.43;7.78;;;13.40;39.40;;;;;;5079289;28;20033;-90
2021/04/20 10:22:40;;;;;;;15.13;8.38;;;13.40;39.80;;;;;;5101227;28;20330;-92
2021/04/20 10:25:18;;;;;;;17.45;7.95;;;13.10;39.90;;;;;;5090060;28;20068;-93
2021/04/20 10:27:47;;;;;;;11.70;6.20;;;12.60;41.00;;;;;;5092654;28;20016;-89
2021/04/20 10:30:25;;;;;;;12.77;6.68;;;12.50;41.60;;;;;;5102149;28;20024;-92
2021/04/20 10:32:53;;;;;;;13.45;6.03;;;12.40;42.50;;;;;;5089933;28;20028;-93
2021/04/20 10:35:36;;;;;;;12.30;7.20;;;12.10;43.20;;;;;;5104692;28;20374;-92
2021/04/20 10:38:11;;;;;;;13.77;7.00;;;12.10;43.00;;;;;;5092225;28;20047;-92
2021/04/20 10:40:40;;;;;;;10.02;7.30;;;11.90;43.40;;;;;;5104525;28;20020;-92
2021/04/20 10:43:12;;;;;;;21.55;9.05;;;11.70;44.30;;;;;;5115339;28;20535;-91
2021/04/20 10:45:40;;;;;;;17.60;8.60;;;11.50;44.60;;;;;;5108396;28;20020;-90
2021/04/20 10:48:09;;;;;;;12.93;7.80;;;11.50;45.40;;;;;;5109810;28;20157;-90
2021/04/20 10:50:39;;;;;;;16.85;8.15;;;11.50;45.10;;;;;;5097717;28;20028;-90
2021/04/20 10:53:23;;;;;;;21.33;9.75;;;11.50;45.50;;;;;;5078460;28;20034;-91
2021/04/20 10:56:00;;;;;;;13.10;8.15;;;11.50;45.40;;;;;;5088923;28;20027;-94
2021/04/20 10:58:28;;;;;;;15.85;7.65;;;11.30;45.60;;;;;;5039399;28;20053;-91
2021/04/20 11:01:20;;;;;;;21.65;7.43;;;11.30;45.70;;;;;;5023634;28;20060;-91
2021/04/20 11:03:51;;;;;;;18.83;8.95;;;11.00;46.10;;;;;;5010553;28;20407;-90
2021/04/20 11:06:59;;;;;;;22.90;9.20;;;10.70;46.70;;;;;;5038908;28;20033;-92
2021/04/20 11:09:32;;;;;;;16.88;8.93;;;10.70;46.40;;;;;;5039217;28;20045;-91
2021/04/20 11:12:10;;;;;;;11.35;7.90;;;10.80;46.80;;;;;;5041341;28;20057;-89
2021/04/20 11:14:39;;;;;;;21.15;9.43;;;10.90;46.70;;;;;;5023482;28;20069;-91
2021/04/20 11:17:11;;;;;;;14.68;7.32;;;10.90;47.30;;;;;;5039215;28;20030;-90
2021/04/20 11:19:45;;;;;;;17.70;8.63;;;10.60;49.10;;;;;;5038753;28;20045;-93
2021/04/20 11:22:15;;;;;;;17.73;8.07;;;10.20;51.80;;;;;;5042991;28;20029;-91
2021/04/20 11:24:56;;;;;;;20.30;9.27;;;9.90;51.90;;;;;;5035089;28;20033;-91
2021/04/20 11:27:26;;;;;;;14.82;8.50;;;9.80;52.70;;;;;;5042252;28;20025;-89
2021/04/20 11:30:11;;;;;;;10.45;6.20;;;9.80;52.30;;;;;;5086138;28;20509;-92
2021/04/20 11:32:48;;;;;;;23.13;7.53;;;9.80;51.80;;;;;;5113879;28;20063;-90
2021/04/20 11:35:19;;;;;;;9.45;5.18;;;9.80;51.20;;;;;;5106536;28;20064;-90
2021/04/20 11:38:03;;;;;;;16.27;6.30;;;9.70;52.00;;;;;;5103304;28;20024;-91
2021/04/20 11:40:34;;;;;;;13.20;6.93;;;9.50;52.50;;;;;;5102316;28;20471;-92
2021/04/20 11:43:03;;;;;;;10.43;5.43;;;9.40;54.60;;;;;;5103082;28;20118;-91
2021/04/20 11:45:51;;;;;;;11.57;5.93;;;9.20;54.90;;;;;;5089203;28;20111;-91
2021/04/20 11:48:25;;;;;;;11.45;5.60;;;9.20;55.80;;;;;;5061360;28;20104;-93
2021/04/20 11:51:02;;;;;;;12.38;6.38;;;9.00;55.50;;;;;;5088838;28;20035;-92
2021/04/20 11:53:36;;;;;;;10.85;5.43;;;8.60;56.70;;;;;;5090993;28;20425;-90
2021/04/20 11:56:09;;;;;;;18.58;6.93;;;8.40;59.50;;;;;;5080822;28;20028;-90
2021/04/20 11:58:40;;;;;;;19.15;7.72;;;8.20;61.10;;;;;;5101899;28;20041;-90
2021/04/20 12:01:17;;;;;;;17.35;7.43;;;7.90;64.70;;;;;;5101549;28;20461;-92
2021/04/20 12:03:54;;;;;;;14.00;5.68;;;7.80;66.10;;;;;;5112404;28;20016;-92
2021/04/20 12:06:24;;;;;;;27.27;7.90;;;7.80;66.90;;;;;;5099029;28;20092;-93
2021/04/20 12:08:59;;;;;;;19.52;6.80;;;7.90;67.90;;;;;;5099332;28;20034;-92
2021/04/20 12:11:28;;;;;;;17.83;6.65;;;8.00;68.70;;;;;;5101175;28;20076;-89
2021/04/20 12:13:54;;;;;;;10.38;6.43;;;7.60;70.20;;;;;;5085655;28;20021;-91
2021/04/20 12:16:22;;;;;;;12.00;6.50;;;7.40;71.30;;;;;;5102295;28;20076;-92
2021/04/20 12:18:51;;;;;;;11.05;7.82;;;7.30;72.40;;;;;;5080287;28;20513;-92
2021/04/20 12:21:36;;;;;;;9.07;6.93;;;7.10;73.70;;;;;;5103072;28;20021;-90
2021/04/20 12:24:07;;;;;;;16.58;7.82;;;6.90;75.10;;;;;;5103715;28;20131;-93
2021/04/20 12:26:34;;;;;;;8.63;6.00;;;6.50;76.50;;;;;;5096912;28;20039;-91
2021/04/20 12:29:09;;;;;;;14.07;7.82;;;6.40;78.30;;;;;;5115020;28;20036;-89
2021/04/20 12:31:36;;;;;;;11.60;6.95;;;5.90;80.30;;;;;;5110798;28;20020;-91
2021/04/20 12:34:02;;;;;;;10.27;7.27;;;5.60;83.20;;;;;;5099049;28;20024;-92
2021/04/20 12:36:38;;;;;;;10.68;5.47;;;5.60;84.20;;;;;;5084127;28;20129;-91
2021/04/20 12:39:09;;;;;;;7.65;5.68;;;5.60;84.60;;;;;;5078804;28;20051;-89
2021/04/20 12:41:40;;;;;;;6.65;5.60;;;5.50;84.80;;;;;;5100454;28;20040;-91
2021/04/20 12:44:14;;;;;;;8.63;5.40;;;5.50;84.60;;;;;;5097767;28;20024;-90
2021/04/20 12:46:41;;;;;;;15.68;6.20;;;5.50;85.20;;;;;;5087417;28;20028;-90
2021/04/20 12:49:09;;;;;;;8.15;4.90;;;5.30;85.20;;;;;;5092838;28;20020;-90
2021/04/20 12:51:39;;;;;;;;;;;5.30;86.50;;;;;;5097699;28;20387;-90
2021/04/20 12:54:10;;;;;;;10.90;6.90;;;5.40;85.70;;;;;;5100757;28;20315;-91
2021/04/20 12:56:38;;;;;;;11.27;5.57;;;5.50;86.50;;;;;;5099027;28;20028;-92
2021/04/20 12:59:41;;;;;;;9.57;6.60;;;5.30;86.70;;;;;;5100089;28;20040;-90
2021/04/20 13:02:09;;;;;;;10.23;6.30;;;5.30;87.70;;;;;;5075589;28;20067;-89
2021/04/20 13:04:38;;;;;;;9.25;6.20;;;5.60;87.40;;;;;;5100167;28;20388;-93
2021/04/20 13:07:05;;;;;;;15.05;6.72;;;5.60;87.30;;;;;;5102282;28;20016;-90
2021/04/20 13:09:36;;;;;;;8.55;5.25;;;5.70;87.70;;;;;;5115748;28;20374;-90
2021/04/20 13:12:10;;;;;;;7.38;5.65;;;5.70;87.20;;;;;;5105710;28;20032;-89
2021/04/20 13:14:38;;;;;;;8.90;4.90;;;5.60;85.20;;;;;;5094876;28;20096;-88
2021/04/20 13:17:05;;;;;;;10.68;5.57;;;5.40;86.60;;;;;;5108251;28;20044;-90
2021/04/20 13:19:39;;;;;;;10.05;5.57;;;5.20;86.90;;;;;;5106220;28;20051;-91
2021/04/20 13:22:08;;;;;;;7.68;5.45;;;5.20;88.10;;;;;;5101014;28;20017;-89
2021/04/20 13:24:36;;;;;;;8.63;5.25;;;5.10;86.10;;;;;;5084102;28;20025;-92